MFE weather

Mc Allen Miller International Airport
Mc Allen, Texas, United States

Public forecast

Using degrees Fahrenheit for public forecast. Weather courtesy of forecast.io.

Current aviation weather report (METAR) for Mc Allen Miller International Airport

Retrieved 2019/10/15 01:53 UTC (1 hour ago):

KMFE 150153Z 15007KT 10SM CLR 28/22 A2992 RMK AO2 SLP128 T02830217

Aviation forecast (TAF) for Mc Allen Miller International Airport

Retrieved 2019-10-15 00:22 UTC (3 hours ago):

TAF KMFE 142320Z 1500/1524 13011KT P6SM FEW090 FEW200 FM150600 15008KT P6SM FEW018 SCT120 FM151200 16006KT P6SM FEW017 SCT200 FM151500 16010KT P6SM FEW050 SCT250